Time;durP1;ratioP1;P1;durP2;ratioP2;P2;SDS_P1;SDS_P2;PMS_P1;PMS_P2;Temp;Humidity;BMP_temperature;BMP_pressure;BME280_temperature;BME280_humidity;BME280_pressure;Samples;Min_cycle;Max_cycle;Signal;HPM_P1;HPM_P2
2022/11/29 00:02:23;;;;;;;13.00;6.45;;;;;;;2.33;82.35;102200.17;1739918;81;21204;-61
2022/11/29 00:05:53;;;;;;;11.80;6.97;;;;;;;2.40;82.39;102193.48;1871851;75;22215;-56
2022/11/29 00:09:35;;;;;;;8.83;6.15;;;;;;;2.37;82.40;102200.40;1751880;77;21808;-56
2022/11/29 00:13:07;;;;;;;13.05;6.97;;;;;;;2.38;82.33;102206.22;1639575;84;21542;-55
2022/11/29 00:17:00;;;;;;;11.63;6.53;;;;;;;2.40;82.34;102195.72;1621044;85;21293;-59
2022/11/29 00:20:26;;;;;;;15.00;6.70;;;;;;;2.36;82.16;102191.91;1613014;85;21249;-59
2022/11/29 00:24:33;;;;;;;10.90;6.25;;;;;;;2.24;81.95;102191.17;1640763;80;21254;-59
2022/11/29 00:31:47;;;;;;;9.58;5.85;;;;;;;2.24;82.20;102186.66;1694972;79;21712;-59
2022/11/29 00:35:54;;;;;;;10.82;6.00;;;;;;;2.32;82.27;102176.33;1850002;75;22258;-56
2022/11/29 00:39:25;;;;;;;10.25;5.95;;;;;;;2.27;82.24;102170.74;1828126;77;21219;-56
2022/11/29 00:43:23;;;;;;;10.20;5.40;;;;;;;2.35;82.21;102172.58;1873843;76;20269;-56
2022/11/29 00:47:11;;;;;;;10.35;5.53;;;;;;;2.22;81.97;102159.33;1802878;79;21180;-56
2022/11/29 00:55:20;;;;;;;8.20;5.47;;;;;;;2.21;82.14;102161.14;1740187;78;21167;-60
2022/11/29 00:59:10;;;;;;;10.35;5.95;;;;;;;2.24;82.03;102166.85;1809773;76;22422;-59
2022/11/29 01:13:27;;;;;;;8.60;4.85;;;;;;;2.20;82.00;102185.55;1703013;80;21358;31
2022/11/29 01:17:47;;;;;;;10.95;5.50;;;;;;;2.20;82.00;102191.83;1682411;82;21441;-59
2022/11/29 01:21:40;;;;;;;8.28;5.50;;;;;;;2.20;82.07;102193.19;1685804;82;21993;-56
2022/11/29 01:25:20;;;;;;;9.95;5.65;;;;;;;2.26;82.15;102194.67;1719903;78;21380;-56
2022/11/29 01:29:31;;;;;;;8.33;5.37;;;;;;;2.28;82.13;102196.36;1762400;79;21425;-60
2022/11/29 01:36:27;;;;;;;9.53;5.47;;;;;;;2.28;82.10;102190.96;1715703;79;21572;-59
2022/11/29 01:40:35;;;;;;;9.05;5.60;;;;;;;2.21;81.86;102185.46;1743548;79;21296;-56
2022/11/29 01:44:31;;;;;;;8.58;5.35;;;;;;;2.21;81.95;102175.13;1735424;80;21737;-59
2022/11/29 01:52:22;;;;;;;9.00;4.95;;;;;;;2.24;81.95;102173.14;1732210;81;21223;-56
2022/11/29 01:56:18;;;;;;;9.98;5.08;;;;;;;2.26;81.94;102166.30;1686058;82;21174;-56
2022/11/29 01:59:57;;;;;;;10.08;5.17;;;;;;;2.26;82.04;102175.30;1710886;78;21356;-56
2022/11/29 02:11:20;;;;;;;10.58;5.42;;;;;;;2.25;81.80;102166.77;1782999;76;21296;-60
2022/11/29 02:15:07;;;;;;;8.45;5.12;;;;;;;2.24;81.85;102169.55;1756089;78;21403;-57
2022/11/29 02:26:01;;;;;;;8.65;5.08;;;;;;;2.27;81.90;102169.39;1707302;83;21208;-58
2022/11/29 02:30:01;;;;;;;8.33;5.20;;;;;;;2.28;81.84;102170.70;1728280;78;21257;-58
2022/11/29 03:00:33;;;;;;;8.28;5.37;;;;;;;2.21;81.94;102162.96;1719691;79;21288;-59
2022/11/29 03:04:25;;;;;;;11.88;5.55;;;;;;;2.16;81.71;102160.50;1682691;81;21267;-59
2022/11/29 03:08:07;;;;;;;10.63;5.75;;;;;;;2.09;81.57;102169.02;1714688;79;21570;-60
2022/11/29 03:12:04;;;;;;;9.65;5.62;;;;;;;2.08;81.71;102151.92;1669104;83;21364;-56
2022/11/29 03:16:19;;;;;;;9.43;5.37;;;;;;;2.14;81.76;102154.80;1878118;76;22203;-57
2022/11/29 03:20:17;;;;;;;8.40;5.50;;;;;;;2.12;81.83;102160.75;1761742;79;21274;-59
2022/11/29 03:42:59;;;;;;;9.65;5.03;;;;;;;2.24;81.63;102181.71;1771174;79;21300;-59
2022/11/29 03:46:54;;;;;;;10.13;6.12;;;;;;;2.26;81.64;102178.47;1775863;81;21204;-59
2022/11/29 03:55:16;;;;;;;10.85;6.08;;;;;;;2.25;81.57;102172.17;1768773;76;22348;-59
2022/11/29 03:59:25;;;;;;;10.68;6.15;;;;;;;2.18;81.55;102166.71;1690514;80;21776;-61
2022/11/29 04:03:38;;;;;;;11.20;5.92;;;;;;;2.13;81.52;102172.82;1747069;78;21273;-56
2022/11/29 04:11:10;;;;;;;10.95;6.67;;;;;;;2.19;81.52;102178.41;1702838;82;21552;-57
2022/11/29 04:15:13;;;;;;;10.82;5.95;;;;;;;2.21;81.54;102188.63;1716502;82;21471;-59
2022/11/29 04:23:10;;;;;;;9.93;6.00;;;;;;;2.21;81.46;102189.98;1764381;80;21733;-57
2022/11/29 04:27:08;;;;;;;9.55;5.50;;;;;;;2.16;81.44;102188.87;1767193;81;21172;-59
2022/11/29 04:31:02;;;;;;;14.38;5.80;;;;;;;2.15;81.42;102195.70;1688430;84;21271;-59
2022/11/29 04:34:47;;;;;;;12.45;6.03;;;;;;;2.13;81.29;102196.25;1853851;76;22817;-59
2022/11/29 04:49:14;;;;;;;13.30;6.65;;;;;;;1.95;81.41;102205.30;1810585;79;22337;-57
2022/11/29 04:53:31;;;;;;;32.40;18.27;;;;;;;1.99;81.51;102196.08;1885846;74;22727;-56
2022/11/29 04:57:20;;;;;;;12.80;7.65;;;;;;;1.91;81.47;102201.88;1860015;76;21701;-56
2022/11/29 05:00:45;;;;;;;13.48;5.85;;;;;;;1.96;81.57;102199.81;1700329;83;21212;-56
2022/11/29 05:04:43;;;;;;;11.20;6.12;;;;;;;2.02;81.64;102206.25;1675543;79;21216;-57
2022/11/29 05:12:48;;;;;;;10.50;6.12;;;;;;;2.09;81.70;102210.41;1683454;85;21208;-56
2022/11/29 05:16:57;;;;;;;11.10;6.42;;;;;;;2.04;81.46;102227.78;1579270;89;21221;-55
2022/11/29 05:21:22;;;;;;;9.70;5.87;;;;;;;2.02;81.53;102225.16;1689252;78;21920;-54
2022/11/29 05:25:12;;;;;;;9.08;5.22;;;;;;;2.02;81.50;102226.98;1719055;81;21541;-56
2022/11/29 05:37:28;;;;;;;10.48;5.85;;;;;;;1.92;81.40;102244.61;1717145;82;21236;-55
2022/11/29 05:46:11;;;;;;;12.50;6.87;;;;;;;1.92;81.45;102250.86;1588043;88;21466;-55
2022/11/29 05:49:54;;;;;;;12.78;8.18;;;;;;;1.94;81.35;102250.78;1657666;81;21283;-54
2022/11/29 05:53:14;;;;;;;15.40;6.78;;;;;;;1.94;81.34;102246.73;1675883;84;21374;-56
2022/11/29 05:57:12;;;;;;;13.72;7.05;;;;;;;1.91;81.30;102249.12;1715933;81;21823;-54
2022/11/29 06:17:24;;;;;;;15.60;7.15;;;;;;;2.06;81.41;102257.80;1665685;82;21704;-52
2022/11/29 06:20:59;;;;;;;10.68;6.90;;;;;;;2.09;81.44;102250.92;1627532;84;21196;-51
2022/11/29 06:24:59;;;;;;;11.57;5.97;;;;;;;2.11;81.39;102263.00;1738842;80;22036;-52
2022/11/29 06:39:08;;;;;;;9.13;4.53;;;;;;;2.11;81.20;102255.75;1756768;77;22350;-54
2022/11/29 07:09:50;;;;;;;9.48;4.78;;;;;;;2.25;81.08;102267.23;1710599;79;21364;-53
2022/11/29 07:13:24;;;;;;;8.70;4.72;;;;;;;2.30;81.02;102281.41;1755200;79;21255;-55
2022/11/29 07:17:53;;;;;;;9.67;4.60;;;;;;;2.29;80.88;102275.11;1781960;77;21386;-54
2022/11/29 07:26:00;;;;;;;9.20;4.65;;;;;;;2.21;80.50;102275.08;1883130;75;22700;-54
2022/11/29 07:29:27;;;;;;;9.48;5.28;;;;;;;2.14;80.53;102283.11;1822466;77;21227;-54
2022/11/29 07:37:43;;;;;;;8.28;4.75;;;;;;;2.17;80.51;102285.66;1810422;78;21251;-51
2022/11/29 07:41:18;;;;;;;9.45;4.28;;;;;;;2.19;80.55;102285.11;1811113;78;21214;-51
2022/11/29 07:44:59;;;;;;;13.22;5.20;;;;;;;2.23;80.61;102288.93;1801469;78;21165;-54
2022/11/29 08:26:14;;;;;;;11.88;5.70;;;;;;;2.45;80.12;102281.95;1747323;77;21271;-54
2022/11/29 08:48:58;;;;;;;11.08;5.25;;;;;;;2.50;80.14;102274.50;1711936;79;21539;-54
2022/11/29 08:56:46;;;;;;;14.85;5.10;;;;;;;2.60;80.18;102275.78;1706900;78;21239;-56
2022/11/29 09:00:23;;;;;;;14.25;5.15;;;;;;;2.65;80.02;102261.06;1862934;76;22312;-54
2022/11/29 09:04:01;;;;;;;10.63;4.75;;;;;;;2.56;79.94;102264.25;1812127;78;21582;-54
2022/11/29 09:07:36;;;;;;;11.15;5.45;;;;;;;2.53;79.92;102257.66;1796535;79;21206;-54
2022/11/29 09:10:41;;;;;;;19.17;9.18;;;;;;;2.52;79.92;102255.03;1740085;81;21212;-56
2022/11/29 09:14:16;;;;;;;20.77;9.98;;;;;;;2.63;79.95;102249.44;1779612;78;28282;-55
2022/11/29 09:17:46;;;;;;;15.03;8.28;;;;;;;2.67;79.84;102251.52;1722852;81;21165;-57
2022/11/29 09:32:22;;;;;;;11.70;4.70;;;;;;;2.83;79.64;102238.94;1715809;78;22384;-56
2022/11/29 09:44:00;;;;;;;13.22;5.75;;;;;;;2.87;79.55;102231.08;1649394;82;21299;31
2022/11/29 09:51:37;;;;;;;12.85;5.65;;;;;;;2.94;79.52;102227.06;1690969;81;21182;-54
2022/11/29 10:17:07;;;;;;;11.78;4.80;;;;;;;2.88;79.20;102199.89;1729575;78;22413;-54
2022/11/29 10:20:32;;;;;;;9.20;4.30;;;;;;;2.88;79.31;102200.36;1655450;80;21803;-55
2022/11/29 10:24:03;;;;;;;9.08;4.47;;;;;;;2.97;79.32;102198.50;1636611;84;21478;-54
2022/11/29 10:31:42;;;;;;;8.43;5.20;;;;;;;2.99;79.08;102204.70;1726221;78;21232;31
2022/11/29 10:35:06;;;;;;;11.08;5.00;;;;;;;2.96;79.00;102188.65;1737111;78;22156;-56
2022/11/29 10:39:05;;;;;;;15.03;4.75;;;;;;;2.99;79.05;102192.53;1665377;79;21268;-53
2022/11/29 10:46:23;;;;;;;8.03;3.98;;;;;;;3.23;79.09;102185.78;1648622;83;21279;-55
2022/11/29 10:50:26;;;;;;;8.58;4.28;;;;;;;3.19;78.82;102182.83;1672925;79;21398;31
2022/11/29 11:24:42;;;;;;;11.93;5.42;;;;;;;3.62;78.84;102169.98;1726535;78;21232;31
2022/11/29 11:28:16;;;;;;;10.55;4.95;;;;;;;3.62;78.71;102153.73;1657242;79;21779;-58
2022/11/29 11:31:50;;;;;;;9.03;4.17;;;;;;;3.69;78.66;102173.21;1875013;76;22234;-58
2022/11/29 11:35:45;;;;;;;8.00;4.42;;;;;;;3.62;78.56;102163.68;1679810;83;21880;-57
2022/11/29 11:39:44;;;;;;;11.68;4.90;;;;;;;3.62;78.49;102167.73;1739274;81;21308;-60
2022/11/29 11:43:33;;;;;;;;;;;;;;;3.59;78.46;102153.91;1730764;82;21292;-59
2022/11/29 11:46:58;;;;;;;6.67;3.87;;;;;;;3.64;78.52;102149.58;1765625;80;20221;-58
2022/11/29 11:50:26;;;;;;;8.85;4.10;;;;;;;3.67;78.51;102167.89;1756983;79;21259;-58
2022/11/29 11:53:52;;;;;;;10.63;4.25;;;;;;;3.69;78.40;102183.58;1748995;80;21235;-57
2022/11/29 12:01:25;;;;;;;5.80;3.35;;;;;;;3.61;78.20;102182.25;1695575;82;21909;-60
2022/11/29 12:04:39;;;;;;;6.53;3.80;;;;;;;3.59;78.25;102167.45;1673288;79;21253;-62
2022/11/29 12:24:42;;;;;;;6.83;3.87;;;;;;;3.14;78.00;102146.18;1686023;83;21220;-58
2022/11/29 12:43:31;;;;;;;9.28;3.30;;;;;;;2.86;78.38;102163.93;1751266;78;22845;-57
2022/11/29 13:05:38;;;;;;;11.10;4.90;;;;;;;2.62;78.41;102159.84;1669357;80;21333;-58
2022/11/29 13:09:55;;;;;;;8.65;4.97;;;;;;;2.58;78.46;102179.02;1606431;84;21298;-61
2022/11/29 13:13:55;;;;;;;11.45;5.28;;;;;;;2.63;78.61;102189.96;1646171;81;21356;-60
2022/11/29 13:17:56;;;;;;;11.40;5.40;;;;;;;2.68;78.67;102173.02;1650144;80;21226;-61
2022/11/29 13:32:16;;;;;;;13.35;5.78;;;;;;;2.83;78.64;102183.50;1727124;80;22613;-56
2022/11/29 13:36:03;;;;;;;14.90;5.83;;;;;;;2.77;78.62;102175.72;1661040;83;21588;-57
2022/11/29 13:52:17;;;;;;;17.05;8.30;;;;;;;2.64;78.36;102180.91;1697504;80;21876;-62
2022/11/29 14:01:01;;;;;;;12.78;5.70;;;;;;;2.70;78.52;102175.64;1727339;82;21586;-57
2022/11/29 14:46:22;;;;;;;10.20;4.67;;;;;;;2.46;78.23;102182.34;1691802;83;21456;-58
2022/11/29 15:01:20;;;;;;;17.15;7.47;;;;;;;2.52;78.13;102196.41;1646698;86;21195;-58
2022/11/29 15:09:03;;;;;;;10.48;6.05;;;;;;;2.41;77.93;102195.25;1816881;76;21800;-58
2022/11/29 15:12:51;;;;;;;21.97;6.87;;;;;;;2.42;77.96;102196.98;1872032;76;21343;-57
2022/11/29 15:16:53;;;;;;;10.38;4.97;;;;;;;2.39;77.90;102199.39;1712091;82;21269;-55
2022/11/29 15:21:10;;;;;;;8.90;4.70;;;;;;;2.38;77.87;102202.17;1691643;83;21559;-56
2022/11/29 15:25:24;;;;;;;16.25;6.55;;;;;;;2.37;77.91;102196.34;1652034;86;21239;-57
2022/11/29 15:32:32;;;;;;;13.93;6.05;;;;;;;2.28;77.76;102181.50;1746555;81;21689;-57
2022/11/29 15:36:37;;;;;;;12.43;6.33;;;;;;;2.21;77.63;102184.58;1731199;81;21650;-56
2022/11/29 15:41:10;;;;;;;8.13;4.60;;;;;;;2.17;77.60;102172.20;1696174;84;21701;-56
2022/11/29 15:45:32;;;;;;;11.55;4.75;;;;;;;2.07;77.56;102174.95;1701765;82;21406;-57
2022/11/29 16:10:54;;;;;;;10.18;4.80;;;;;;;2.29;76.60;102191.34;1877955;76;22202;-58
2022/11/29 16:18:01;;;;;;;16.95;5.55;;;;;;;2.05;76.63;102201.16;1747188;79;21778;-57
2022/11/29 16:21:46;;;;;;;10.50;4.25;;;;;;;1.98;76.72;102201.98;1724017;81;21212;-58
2022/11/29 16:25:19;;;;;;;7.83;3.85;;;;;;;1.90;76.77;102209.59;1633227;86;21300;-56
2022/11/29 16:28:34;;;;;;;11.85;5.65;;;;;;;1.83;76.87;102209.94;1671465;85;21324;-56
2022/11/29 16:35:39;;;;;;;9.20;4.70;;;;;;;1.58;76.85;102206.70;1706408;84;21497;-56
2022/11/29 16:39:15;;;;;;;7.58;4.10;;;;;;;1.53;77.00;102211.86;1697511;84;21268;-58
2022/11/29 16:42:42;;;;;;;8.60;4.20;;;;;;;1.53;77.11;102224.00;1867350;76;22311;-59
2022/11/29 16:46:37;;;;;;;10.90;5.20;;;;;;;1.46;77.20;102222.53;1794941;79;21799;-58
2022/11/29 16:50:36;;;;;;;8.53;3.75;;;;;;;1.45;77.27;102216.75;1802703;77;21215;-57
2022/11/29 16:54:00;;;;;;;9.68;4.37;;;;;;;1.42;77.27;102206.56;1783543;77;21870;-58
2022/11/29 16:57:27;;;;;;;9.00;4.15;;;;;;;1.36;77.14;102209.06;1740582;81;21413;-58
2022/11/29 17:01:38;;;;;;;9.05;4.28;;;;;;;1.30;77.09;102213.41;1708996;84;21215;-58
2022/11/29 17:05:13;;;;;;;6.85;3.30;;;;;;;1.20;77.00;102213.47;1837128;76;22984;-57
2022/11/29 17:08:48;;;;;;;8.15;4.08;;;;;;;1.12;77.09;102199.46;1761431;77;21841;-57
2022/11/29 17:12:35;;;;;;;10.68;4.35;;;;;;;1.13;77.21;102211.98;1797812;78;21269;-58
2022/11/29 17:16:11;;;;;;;8.45;5.03;;;;;;;1.13;77.22;102211.10;1766747;78;21574;-56
2022/11/29 17:19:41;;;;;;;8.10;4.85;;;;;;;1.10;77.23;102205.39;1761052;77;21208;-58
2022/11/29 17:23:25;;;;;;;8.28;4.15;;;;;;;1.12;77.29;102211.59;1764081;79;21261;-58
2022/11/29 17:27:54;;;;;;;18.77;8.53;;;;;;;1.13;77.31;102210.64;1767090;77;21254;-58
2022/11/29 17:31:34;;;;;;;9.05;4.30;;;;;;;1.13;77.21;102201.20;1792518;77;21216;-57
2022/11/29 17:35:16;;;;;;;7.97;3.75;;;;;;;1.09;77.11;102209.05;1765064;78;21263;-57
2022/11/29 17:39:26;;;;;;;9.83;4.17;;;;;;;1.08;77.07;102211.78;1772000;79;21204;-58
2022/11/29 17:49:02;;;;;;;14.95;3.95;;;;;;;0.98;76.85;102215.38;1638851;83;21248;-56
2022/11/29 17:52:20;;;;;;;8.03;4.10;;;;;;;0.94;76.95;102220.52;1674717;82;21478;-57
2022/11/29 17:55:55;;;;;;;7.55;4.17;;;;;;;0.96;77.06;102218.64;1641397;83;21332;-58
2022/11/29 17:59:19;;;;;;;8.10;4.20;;;;;;;1.00;77.11;102216.69;1664207;82;21221;-58
2022/11/29 18:02:50;;;;;;;9.00;4.10;;;;;;;1.02;77.08;102219.70;1662687;81;21204;-58
2022/11/29 18:06:30;;;;;;;7.58;4.42;;;;;;;1.00;76.94;102213.98;1669998;81;21260;-58
2022/11/29 18:13:07;;;;;;;8.10;4.67;;;;;;;0.97;76.88;102224.42;1684866;80;21331;-59
2022/11/29 18:26:41;;;;;;;10.00;5.72;;;;;;;0.96;76.78;102217.75;1714126;80;21226;-58
2022/11/29 18:30:39;;;;;;;11.78;4.35;;;;;;;0.98;76.82;102218.07;1736545;80;21223;-57
2022/11/29 18:34:08;;;;;;;11.78;4.20;;;;;;;0.99;76.76;102236.02;1731562;79;21815;-60
2022/11/29 18:40:23;;;;;;;9.75;4.67;;;;;;;1.03;76.77;102217.39;1753189;79;21419;-58
2022/11/29 18:44:18;;;;;;;8.05;3.90;;;;;;;1.12;76.75;102215.64;1852777;75;22682;-56
2022/11/29 18:48:03;;;;;;;7.58;3.90;;;;;;;1.07;76.72;102212.28;1803030;77;21362;-57
2022/11/29 18:52:05;;;;;;;6.70;3.58;;;;;;;1.05;76.62;102210.12;1775451;77;21229;-58
2022/11/29 18:55:36;;;;;;;;;;;;;;;1.02;76.55;102213.42;1803943;77;21393;-59
2022/11/29 18:59:26;;;;;;;10.05;4.45;;;;;;;0.98;76.50;102219.92;1782979;77;20175;-57
2022/11/29 19:02:57;;;;;;;8.23;3.90;;;;;;;0.92;76.45;102222.41;1804489;78;21544;-56
2022/11/29 19:06:41;;;;;;;13.70;5.10;;;;;;;0.88;76.38;102218.11;1776074;78;21827;-58
2022/11/29 19:10:27;;;;;;;7.20;3.90;;;;;;;0.86;76.37;102230.77;1803499;77;21271;-57
2022/11/29 19:13:56;;;;;;;8.43;4.17;;;;;;;0.89;76.41;102233.79;1801432;77;21658;-58
2022/11/29 19:17:18;;;;;;;6.15;3.60;;;;;;;0.87;76.42;102240.60;1803947;77;21274;-58
2022/11/29 19:20:44;;;;;;;6.90;3.85;;;;;;;0.87;76.41;102235.21;1806706;77;21422;-58
2022/11/29 19:24:12;;;;;;;5.60;3.55;;;;;;;0.87;76.41;102242.45;1775474;78;21384;-58
2022/11/29 19:27:35;;;;;;;6.78;3.80;;;;;;;0.85;76.35;102239.82;1764399;78;21389;-58
2022/11/29 19:34:39;;;;;;;19.42;10.58;;;;;;;0.83;76.20;102240.35;1856843;75;22569;-56
2022/11/29 19:37:51;;;;;;;8.53;5.28;;;;;;;0.76;76.20;102236.16;1807772;77;21165;-57
2022/11/29 19:41:29;;;;;;;9.70;4.20;;;;;;;0.77;76.06;102243.80;1858185;76;22194;-55
2022/11/29 19:44:54;;;;;;;207.00;108.85;;;;;;;0.65;75.97;102251.94;1713160;82;21279;-58
2022/11/29 19:48:39;;;;;;;22.45;11.08;;;;;;;0.52;75.88;102248.05;1766273;81;21240;-59
2022/11/29 19:52:27;;;;;;;9.98;5.40;;;;;;;0.49;75.85;102244.11;1758078;81;21328;-59
2022/11/29 19:55:49;;;;;;;9.83;3.92;;;;;;;0.46;75.81;102244.25;1804425;79;21197;-59
2022/11/29 19:59:05;;;;;;;6.97;3.65;;;;;;;0.45;75.85;102243.86;1805864;78;21232;-59
2022/11/29 20:03:05;;;;;;;7.60;3.72;;;;;;;0.44;75.85;102248.86;1804887;79;21181;-57
2022/11/29 20:06:26;;;;;;;10.55;3.85;;;;;;;0.44;75.93;102246.16;1630662;86;21207;-56
2022/11/29 20:09:47;;;;;;;6.97;4.37;;;;;;;0.48;76.00;102242.38;1646009;85;21482;-56
2022/11/29 20:13:46;;;;;;;9.55;4.20;;;;;;;0.48;75.97;102243.72;1686231;82;21263;-58
2022/11/29 20:17:27;;;;;;;10.35;5.37;;;;;;;0.49;75.98;102241.92;1668594;84;21590;-57
2022/11/29 20:20:52;;;;;;;9.05;4.67;;;;;;;0.45;75.86;102243.86;1696443;83;21324;-57
2022/11/29 20:35:37;;;;;;;9.43;4.00;;;;;;;0.38;75.63;102253.13;1885595;76;22238;-58
2022/11/29 20:39:19;;;;;;;6.50;3.65;;;;;;;0.29;75.59;102263.42;1815227;77;21226;-56
2022/11/29 20:42:59;;;;;;;7.78;3.67;;;;;;;0.27;75.55;102256.76;1757250;80;21235;-58
2022/11/29 20:46:31;;;;;;;8.23;4.10;;;;;;;0.22;75.51;102259.26;1751374;82;21632;-58
2022/11/29 20:49:51;;;;;;;7.87;3.83;;;;;;;0.20;75.54;102271.44;1742703;81;22144;-56
2022/11/29 20:57:42;;;;;;;8.48;3.77;;;;;;;0.20;75.60;102278.17;1849395;75;21331;-58
2022/11/29 21:01:45;;;;;;;22.67;11.63;;;;;;;0.22;75.59;102284.37;1843517;75;21323;-58
2022/11/29 21:09:42;;;;;;;10.82;6.20;;;;;;;0.07;75.39;102283.65;1811685;76;21972;-58
2022/11/29 21:13:37;;;;;;;7.72;4.33;;;;;;;0.09;75.48;102284.47;1854742;74;21180;-58
2022/11/29 21:17:10;;;;;;;5.60;3.73;;;;;;;0.09;75.50;102294.35;1693785;81;21283;-57
2022/11/29 21:20:46;;;;;;;7.85;4.67;;;;;;;-0.02;75.21;102296.16;1633788;83;21761;-56
2022/11/29 21:24:46;;;;;;;8.10;4.30;;;;;;;-0.08;75.12;102299.09;1695297;83;21463;-58
2022/11/29 21:31:30;;;;;;;5.92;3.85;;;;;;;-0.01;75.30;102297.44;1878597;76;22682;-56
2022/11/29 21:34:50;;;;;;;8.15;3.95;;;;;;;-0.14;75.15;102295.28;1739286;82;21215;-58
2022/11/29 21:38:43;;;;;;;8.20;4.55;;;;;;;-0.14;75.19;102293.94;1785019;79;21698;-57
2022/11/29 21:42:34;;;;;;;6.92;3.27;;;;;;;-0.12;75.28;102294.30;1805315;79;21331;-58
2022/11/29 21:49:45;;;;;;;5.90;4.03;;;;;;;-0.09;75.26;102288.79;1781245;79;21196;-57
2022/11/29 21:53:26;;;;;;;8.85;3.92;;;;;;;-0.08;75.25;102292.37;1778898;79;21220;-58
2022/11/29 21:57:24;;;;;;;9.98;5.50;;;;;;;-0.06;75.22;102293.16;1770331;80;21221;-59
2022/11/29 22:01:38;;;;;;;6.53;3.80;;;;;;;-0.07;75.15;102299.49;1768367;80;21875;-57
2022/11/29 22:08:17;;;;;;;6.28;4.10;;;;;;;-0.11;75.01;102305.92;1725970;81;21211;-58
2022/11/29 22:16:02;;;;;;;8.43;4.37;;;;;;;-0.20;74.90;102290.15;1880202;74;22179;-58
2022/11/29 22:19:51;;;;;;;12.25;6.92;;;;;;;-0.29;74.85;102295.91;1836010;75;21307;-57
2022/11/29 22:23:17;;;;;;;8.20;4.65;;;;;;;-0.34;74.82;102295.20;1846576;76;21376;-57
2022/11/29 22:26:48;;;;;;;11.68;4.17;;;;;;;-0.35;74.88;102297.50;1864956;75;21155;-58
2022/11/29 22:30:34;;;;;;;8.15;4.03;;;;;;;-0.29;74.86;102291.88;1876172;75;22261;-58
2022/11/29 22:34:02;;;;;;;10.32;4.10;;;;;;;-0.36;74.78;102293.03;1772325;81;22078;-56
2022/11/29 22:37:44;;;;;;;7.80;4.30;;;;;;;-0.51;74.48;102284.23;1862801;74;22297;-57
2022/11/29 22:41:25;;;;;;;7.67;4.00;;;;;;;-0.60;74.55;102285.45;1722056;79;21222;-57
2022/11/29 22:45:07;;;;;;;7.75;3.80;;;;;;;-0.59;74.72;102274.23;1753998;77;21229;-58
2022/11/29 22:49:00;;;;;;;8.58;4.58;;;;;;;-0.55;74.80;102282.58;1759727;78;21820;-57
2022/11/29 22:52:30;;;;;;;6.53;4.25;;;;;;;-0.52;74.85;102291.41;1770579;77;21145;-58
2022/11/29 22:56:45;;;;;;;7.62;4.03;;;;;;;-0.45;74.90;102283.98;1784393;77;21247;-57
2022/11/29 23:00:16;;;;;;;7.22;4.35;;;;;;;-0.42;74.86;102291.48;1739317;80;21362;-56
2022/11/29 23:03:53;;;;;;;7.92;4.20;;;;;;;-0.29;74.86;102289.17;1846588;76;22225;-58
2022/11/29 23:07:05;;;;;;;8.70;4.12;;;;;;;-0.35;74.74;102294.81;1764180;81;21742;-58
2022/11/29 23:10:36;;;;;;;9.18;4.20;;;;;;;-0.29;74.71;102291.41;1878377;74;22223;-57
2022/11/29 23:14:05;;;;;;;10.78;5.05;;;;;;;-0.33;74.68;102290.22;1754389;78;21211;-56
